Hlavní strana
METAR-TAF:

METAR-TAF

Letiště :

Nuakšott, Mauritánie

zeměpisná šířka: 18-18-36N, zeměpisná délka: 015-58-11W, výška: 3 m

Aktuální stav počasí

Zpráva byla vytvořena před 27 minutami, v 08:30 UTC
Severoseverovýchodní vítr 5 kt
Teplota 30°C
Vlhkost vzduchu 29%
Tlak 1008 hPa
Viditelnost: 1600 m
rozsáhlý prach

METAR: GQNO 160830Z 02005KT 1600 DU NSC 30/10 Q1008 NOSIG

Čas: 08:57 (08:57 UTC)

Předpověď počasí

Zpráva byla vytvořena před 3 hodinami a 27 minutami, v 05:30 UTC
Předpověď platná od 16 v 06 UTC do 17 v 12 UTC
Severní vítr 12 kt
Viditelnost: 2000 m
zvířený prach
Změna
od 16 v 08 UTC do 16 v 12 UTC
Západoseverozápadní vítr 10 kt
Viditelnost: 6000 m

TAF: GQNO 160530Z 1606/1712 35012KT 2000 BLDU NSC BECMG 1608/1612 29010KT 6000 NSW

Stav a předpovědi počasí z více než 4 000 letišť (zprávy METAR a TAF).

Červené a žluté tečky na mapě představují dostupné meteorologické stanice.

Když kurzor umístíte na tečku, zobrazí se název stanice.

Pak kliknutím zobrazíte stav a předpověď počasí.

Chcete-li změnit mapu, kliknutím na zelené tlačítko se znaménkem +mapu přiblížíte, kliknutím na zelené tlačítko se znaménkem – mapu oddálíte a kliknutím na zelené šipky přejdete na sousední mapy.


METAR-TAF: